Pays
Station

 

Conditions  météo  pour  Da Nang  -  Viet Nam    Viet Nam

  
29 °C
    
 
 

METAR pour Da Nang :

VVDN 161930Z VRB02KT 9999 FEW015 29/22 Q0998 NOSIG

 

Voici le bulletin pour Da Nang - Viet Nam.
 
Le bulletin a été fait il y a 35 minutes, à 19:30 UTC .
Le vent soufflait à la vitesse de 1.0 mètres par seconde de direction variable.
 
La température était de 29 °C, avec un point de rosée à 22 °C.
La température ressentie était de 32 °C.
 
La pression atmosphérique était de 998 hPa.
L'humidité relative était de 66.0%.
 
Il y avait 1 à 2/8ème de nébulosité à une hauteur de 457 mètres.
 
La visibilité globale était de supérieure à 10 kilomètres.
 

 
 
 

Pays :   A   B   C   D   E   F   G   H   I   J   K   L   M   N   O   P   Q   R   S   T   U   V   W   Y   Z

 

Partenaires :  Info Météo avec Met'info
Météo Marine avec MeteoMarine.net
Infos Site  |  Infos Légales  |  Crédits  |  Confidentialité
Contactez-nous  |  Ajouter aux favoris
© 2013-2018 METAR - Tous droits réservés